Tiempo atmosférico en la estación meteorológica de El Pinar, Depósito, Santa Cruz de Tenerife (948 m.)



Fecha
DESCASC
Temp. máxima en grados centígrados (hora)
DESCASC
Temp. mínima en grados centígrados (hora)
DESCASC
Temp. media en grados centígrados
DESCASC
Racha de viento máxima en m/sg (hora)
DESCASC
Velocidad máxima media en intervalos de 10 minutos(hora)
DESCASC
Precipitaciones diarias en mm
DESCASC
Precipitaciones de 00:00 a 06:00 en mm
DESCASC
Precipitaciones de 06:00 a 12:00 en mm
DESCASC
Precipitaciones de 12:00 a 18:00 en mm
DESCASC
Precipitaciones de 18:00 a 24:00 en mm
DESCASC
27-10-2020 19.7 (11:50) 10 (00:20) 14.9 6.39 (12:10) 3.06 (10:00) 0 0 0 0 0
26-10-2020 18.7 (12:40) 10.4 (23:59) 14.6 6.94 (11:50) 3.61 (11:40) 0 0 0 0 0
25-10-2020 18.5 (12:40) 10.7 (02:40) 14.6 8.61 (00:10) 4.17 (00:20) 0 0 0 0 0
24-10-2020 17.9 (12:50) 11.9 (00:00) 14.9 15.28 (11:30) 4.44 (11:40) 0 0 0 0 0
23-10-2020 15.7 (14:00) 10.6 (00:00) 13.2 11.11 (11:50) 5.28 (13:10) 0.6 0 0.6 0 0
22-10-2020 17 (14:30) 11.6 (00:00) 14.3 10 (08:00) 3.89 (06:20) 2.4 1.8 0.6 0 0
21-10-2020 16.9 (10:30) 12.9 (00:00) 14.9 10.83 (04:10) 5 (04:10) 3 0 1 1.4 0.6
20-10-2020 20.4 (13:50) 15.1 (00:00) 17.8 18.06 (09:50) 9.44 (09:40) 2.2 0 0 2.2 0
19-10-2020 25.2 (14:30) 18.1 (00:00) 21.7 10.28 (12:50) 5.83 (23:59) 0 0 0 0 0
18-10-2020 20.2 (17:40) 12.3 (00:00) 16.3 8.33 (16:00) 4.72 (16:00) 0.2 0 0.2 0 0
17-10-2020 17.3 (13:50) 12 (00:00) 14.6 5 (13:50) 2.78 (04:10) 0.4 0 0 0.2 0.2
16-10-2020 19.4 (16:30) 13.1 (00:00) 16.3 7.5 (16:50) 2.78 (16:50) 0 0 0 0 0
15-10-2020 25.4 (14:00) 15.4 (00:00) 20.4 5.83 (14:00) 2.78 (12:00) 0 0 0 0 0
14-10-2020 27.4 (13:10) 17.1 (00:00) 22.3 7.22 (02:50) 2.78 (13:50) 0 0 0 0 0
13-10-2020 27.8 (17:20) 17 (00:00) 22.4 7.5 (12:30) 3.89 (12:30) 1.8 0 1.8 0 0
12-10-2020 27.6 (15:20) 18.5 (00:00) 23.1 10.83 (16:30) 4.17 (14:00) 0 0 0 0 0
11-10-2020 25.1 (17:10) 14.3 (00:00) 19.7 8.06 (01:30) 3.61 (06:40) 0 0 0 0 0
10-10-2020 21.8 (17:20) 14.8 (00:00) 18.3 10.83 (06:30) 4.44 (04:00) 0 0 0 0 0
09-10-2020 22.3 (10:30) 14.1 (00:00) 18.2 10.28 (23:00) 3.61 (15:50) 0 0 0 0 0
08-10-2020 24 (12:50) 15.4 (00:00) 19.7 6.11 (14:00) 3.33 (15:30) 0 0 0 0 0
07-10-2020 23 (14:20) 16.5 (00:00) 19.8 5 (13:50) 2.78 (14:40) 0 0 0 0 0
06-10-2020 18.6 (18:00) 14 (00:00) 16.3 5.56 (01:20) 2.5 (14:40) 5.6 0 5 0.6 0
05-10-2020 19.1 (11:00) 14.5 (00:00) 16.8 11.39 (11:50) 5.83 (16:20) 9.2 4.8 0 1.8 2.6
04-10-2020 21.8 (16:40) 15.5 (00:00) 18.6 11.67 (20:00) 5.28 (20:00) 1.2 0 1.2 0 0
03-10-2020 20.1 (15:20) 14.5 (00:00) 17.3 13.33 (07:20) 4.17 (00:30) 0.8 0 0 0.2 0.6
02-10-2020 20.8 (14:20) 14 (00:00) 17.4 15.56 (22:20) 6.11 (22:10) 0.4 0.2 0 0 0.2
01-10-2020 20.5 (17:10) 14.4 (04:20) 17.4 12.22 (21:30) 4.72 (21:10) 0 0 0 0 0
30-09-2020 19.5 (16:40) 14.5 (00:00) 17 8.33 (14:10) 3.33 (23:00) 0.2 0 0.2 0 0

Gráficas

Temp. máximas Temp. mínimas Temp. medias Precipitaciones Rachas de viento máximas Velocidades máximas media en intervalos de 10 minutos

Datos horarios

Fecha y hora oficial Temperatura (ºC) Velocidad del viento (km/h) Dirección del viento Racha (km/h) Dirección de racha Precipitación (mm) Presión (hPa) Tendencia (hPa) Humedad (%)
2020-10-29 23:00:00 13.2 9 Norte 25 Norte 0 -- -- 83
2020-10-29 22:00:00 13.2 7 Nordeste 21 Nordeste 0 -- -- 83
2020-10-29 21:00:00 13.3 5 Nordeste 16 Noroeste 0 -- -- 85
2020-10-29 20:00:00 13.7 7 Nordeste 19 Norte 0 -- -- 86
2020-10-29 19:00:00 14 6 Este 27 Norte 0 -- -- 86
2020-10-29 18:00:00 14.8 6 Nordeste 21 Nordeste 0 -- -- 81
2020-10-29 17:00:00 15.5 5 Nordeste 20 Noroeste 0 -- -- 82
2020-10-29 16:00:00 18 6 Norte 23 Noroeste 0 -- -- 67
2020-10-29 15:00:00 17.1 7 Este 21 Oeste 0 -- -- 74
2020-10-29 14:00:00 15.8 7 Nordeste 20 Norte 0 -- -- 80
2020-10-29 13:00:00 15.7 6 Este 23 Noroeste 0 -- -- 81
2020-10-29 12:00:00 15.8 7 Este 24 Este 0 -- -- 78
2020-10-29 11:00:00 15.6 7 Nordeste 24 Noroeste 0 -- -- 76
2020-10-29 10:00:00 14.7 8 Nordeste 21 Norte 0 -- -- 78
2020-10-29 09:00:00 13.9 6 Nordeste 26 Nordeste 0 -- -- 83
2020-10-29 08:00:00 13.2 5 Nordeste 14 Este 0 -- -- 89
2020-10-29 07:00:00 13.3 7 Nordeste 25 Norte 0 -- -- 90
2020-10-29 06:00:00 13.1 7 Nordeste 27 Noroeste 0 -- -- 87
2020-10-29 05:00:00 12.5 6 Nordeste 25 Norte 0 -- -- 85
2020-10-29 04:00:00 12.6 6 Norte 33 Nordeste 0 -- -- 84
2020-10-29 03:00:00 12.6 11 Norte 29 Noroeste 0 -- -- 82
2020-10-29 02:00:00 12.9 10 Norte 26 Nordeste 0 -- -- 84
2020-10-29 01:00:00 13.3 5 Norte 18 Nordeste 0 -- -- 85
2020-10-29 00:00:00 13.6 8 Nordeste 24 Este 0 -- -- 85
2020-10-28 23:00:00 13.2 5 Nordeste 19 Este 0 -- -- 87
2020-10-28 22:00:00 13.1 7 Nordeste 15 Este 0 -- -- 85
2020-10-28 21:00:00 13.4 6 Nordeste 21 Nordeste 0 -- -- 87
2020-10-28 20:00:00 13.3 8 Nordeste 27 Este 0 -- -- 82
2020-10-28 19:00:00 13.6 6 Este 22 Este 0 -- -- 80
2020-10-28 18:00:00 14.9 9 Nordeste 18 Nordeste 0 -- -- 77
2020-10-28 17:00:00 16.3 9 Este 19 Este 0 -- -- 68
2020-10-28 16:00:00 17.4 9 Este 21 Este 0 -- -- 65
2020-10-28 15:00:00 18 9 Este 24 Este 0 -- -- 65
2020-10-28 14:00:00 18.6 10 Nordeste 27 Norte 0 -- -- 63
2020-10-28 13:00:00 17.7 7 Norte 21 Nordeste 0 -- -- 66
2020-10-28 12:00:00 17.1 9 Norte 23 Noroeste 0 -- -- 73
2020-10-28 11:00:00 16.6 7 Norte 27 Noroeste 0 -- -- 70
2020-10-28 10:00:00 14.6 7 Nordeste 19 Nordeste 0 -- -- 81
2020-10-28 09:00:00 13.8 4 Nordeste 13 Norte 0 -- -- 86
2020-10-28 08:00:00 11.6 2 Nordeste 12 Nordeste 0 -- -- 93
2020-10-28 07:00:00 12.6 6 Este 18 Este 0 -- -- 88
2020-10-28 06:00:00 13 5 Nordeste 17 Este 0 -- -- 88
2020-10-28 05:00:00 13 8 Nordeste 23 Este 0 -- -- 85
2020-10-28 04:00:00 13.3 6 Nordeste 17 Este 0 -- -- 87
2020-10-28 03:00:00 13.5 4 Nordeste 15 Nordeste 0 -- -- 89
2020-10-28 02:00:00 12.8 3 Nordeste 15 Norte 0 -- -- 90
2020-10-28 01:00:00 13.1 7 Nordeste 21 Norte 0 -- -- 85
2020-10-28 00:00:00 13.3 8 Noroeste 20 Noroeste 0 -- -- 82
2020-10-27 23:00:00 13 5 Noroeste 21 Nordeste 0 -- -- 85
2020-10-27 22:00:00 12.8 3 Norte 14 Sur 0 -- -- 90
2020-10-27 21:00:00 12.8 4 Oeste 11 Sudeste 0 -- -- 90
2020-10-27 20:00:00 12.7 3 Norte 12 Este 0 -- -- 86
2020-10-27 19:00:00 14.2 6 Nordeste 17 Este 0 -- -- 79
2020-10-27 18:00:00 15.6 8 Nordeste 18 Nordeste 0 -- -- 85
2020-10-27 17:00:00 16.7 8 Sudeste 17 Sudeste 0 -- -- 79
2020-10-27 16:00:00 16.8 8 Sudeste 19 Noroeste 0 -- -- 81
2020-10-27 15:00:00 17.4 7 Sudeste 20 Nordeste 0 -- -- 85
2020-10-27 14:00:00 16.7 8 Sudeste 17 Este 0 -- -- 88
2020-10-27 13:00:00 17.6 5 Noroeste 23 Este 0 -- -- 79
2020-10-27 12:00:00 19.1 9 Este 22 Norte 0 -- -- 71
2020-10-27 11:00:00 19.1 9 Nordeste 22 Nordeste 0 -- -- 66
2020-10-27 10:00:00 17.7 11 Sudeste 22 Sudeste 0 -- -- 73
2020-10-27 09:00:00 16 6 Este 18 Noroeste 0 -- -- 79
2020-10-27 08:00:00 14 9 Este 20 Este 0 -- -- 89
2020-10-27 07:00:00 11.5 3 Norte 12 Nordeste 0 -- -- 63
2020-10-27 06:00:00 11.3 3 Norte 8 Norte 0 -- -- 57
2020-10-27 05:00:00 10.6 5 Norte 11 Noroeste 0 -- -- 67
2020-10-27 04:00:00 11.3 4 Noroeste 9 Nordeste 0 -- -- 88
2020-10-27 03:00:00 10.9 5 Nordeste 12 Nordeste 0 -- -- 71
2020-10-27 02:00:00 11.3 4 Norte 10 Noroeste 0 -- -- 58
2020-10-27 01:00:00 11.5 7 Norte 15 Norte 0 -- -- 63
2020-10-27 00:00:00 10.4 5 Noroeste 17 Este 0 -- -- 61
2020-10-26 23:00:00 13.6 6 Nordeste 21 Nordeste 0 -- -- 92
2020-10-26 22:00:00 13.9 6 Nordeste 19 Norte 0 -- -- 90
2020-10-26 21:00:00 14 6 Nordeste 13 Sudeste 0 -- -- 83
2020-10-26 20:00:00 14.1 3 Este 12 Este 0 -- -- 51
2020-10-26 19:00:00 14.8 4 Norte 13 Norte 0 -- -- 55
2020-10-26 18:00:00 16.8 3 Sudoeste 12 Noroeste 0 -- -- 80
2020-10-26 17:00:00 17.8 4 Sudoeste 14 Sur 0 -- -- 77
2020-10-26 16:00:00 17.4 7 Sudeste 18 Sudeste 0 -- -- 77
2020-10-26 15:00:00 17.4 10 Este 23 Este 0 -- -- 78
2020-10-26 14:00:00 18.1 10 Sudeste 21 Este 0 -- -- 75
2020-10-26 13:00:00 18.2 12 Este 23 Sudeste 0 -- -- 72
2020-10-26 12:00:00 18.4 12 Este 25 Este 0 -- -- 71
2020-10-26 11:00:00 18.2 9 Sudeste 24 Sudeste 0 -- -- 74
2020-10-26 10:00:00 17.6 7 Sudeste 19 Este 0 -- -- 76
2020-10-26 09:00:00 17.2 8 Sudeste 16 Oeste 0 -- -- 75
2020-10-26 08:00:00 16.5 5 Oeste 22 Noroeste 0 -- -- 63
2020-10-26 07:00:00 13.8 5 Noroeste 17 Noroeste 0 -- -- 68
2020-10-26 06:00:00 13 6 Norte 13 Norte 0 -- -- 73
2020-10-26 05:00:00 13 5 Norte 9 Norte 0 -- -- 74
2020-10-26 04:00:00 13.2 4 Noroeste 12 Noroeste 0 -- -- 76
2020-10-26 03:00:00 14 5 Norte 11 Noroeste 0 -- -- 74
2020-10-26 02:00:00 14 6 Noroeste 12 Norte 0 -- -- 67
2020-10-26 01:00:00 12.3 3 Noroeste 7 Este 0 -- -- 86
2020-10-26 00:00:00 13.4 4 Nordeste 11 Nordeste 0 -- -- 90
2020-10-25 23:00:00 13.7 3 Norte 7 Norte 0 -- -- 60
2020-10-25 22:00:00 15.1 3 Norte 26 Norte 0 -- -- 52
2020-10-25 21:00:00 14.7 10 Norte 23 Noroeste 0 -- -- 54
2020-10-25 20:00:00 14.1 3 Sudoeste 17 Oeste 0 -- -- 97
2020-10-25 19:00:00 14.2 4 Sudoeste 9 Este 0 -- -- 92
2020-10-25 18:00:00 14.8 4 Este 14 Este 0 -- -- 91
2020-10-25 17:00:00 15.6 6 Este 15 Sudeste 0 -- -- 87
2020-10-25 16:00:00 15.8 7 Este 17 Este 0 -- -- 83
2020-10-25 15:00:00 16.9 6 Sur 15 Sur 0 -- -- 82
2020-10-25 14:00:00 18.2 8 Sur 16 Sudeste 0 -- -- 76
2020-10-25 13:00:00 18.5 6 Sur 20 Sur 0 -- -- 70
2020-10-25 12:00:00 16.9 9 Sudeste 22 Este 0 -- -- 77
2020-10-25 11:00:00 17.5 9 Este 27 Noroeste 0 -- -- 77
2020-10-25 10:00:00 16.8 9 Nordeste 23 Noroeste 0 -- -- 80
2020-10-25 09:00:00 15.7 4 Sudeste 11 Sur 0 -- -- 85
2020-10-25 08:00:00 14 5 Norte 10 Oeste 0 -- -- 80
2020-10-25 07:00:00 14 4 Noroeste 17 Norte 0 -- -- 78
2020-10-25 06:00:00 14.6 7 Noroeste 20 Noroeste 0 -- -- 72
2020-10-25 05:00:00 14 10 Norte 18 Norte 0 -- -- 66
2020-10-25 04:00:00 13.1 7 Noroeste 20 Norte 0 -- -- 72
2020-10-25 03:00:00 10.8 5 Noroeste 9 Noroeste 0 -- -- 82
2020-10-25 02:00:00 12 4 Norte 18 Nordeste 0 -- -- 85
2020-10-25 01:00:00 13.5 8 Este 22 Noroeste 0 -- -- 85
2020-10-25 00:00:00 13.9 8 Nordeste 23 Norte 0 -- -- 84
2020-10-24 23:00:00 14 6 Noroeste 23 Noroeste 0 -- -- 78
2020-10-24 22:00:00 14.2 6 Norte 35 Noroeste 0 -- -- 82
2020-10-24 21:00:00 14.2 11 Norte 31 Norte 0 -- -- 84
2020-10-24 20:00:00 14.4 6 Nordeste 21 Norte 0 -- -- 90
2020-10-24 19:00:00 14.8 8 Nordeste 28 Norte 0 -- -- 79
2020-10-24 18:00:00 16 9 Este 20 Este 0 -- -- 76
2020-10-24 17:00:00 17.1 8 Este 22 Sudeste 0 -- -- 77
2020-10-24 16:00:00 16.9 9 Este 18 Sudeste 0 -- -- 76
2020-10-24 15:00:00 16.8 9 Este 21 Este 0 -- -- 71
2020-10-24 14:00:00 17 11 Este 23 Sudeste 0 -- -- 69
2020-10-24 13:00:00 17 13 Sudeste 33 Este 0 -- -- 69
2020-10-24 12:00:00 16.9 10 Este 55 Sudeste 0 -- -- 69
2020-10-24 11:00:00 15.7 14 Nordeste 36 Nordeste 0 -- -- 77
2020-10-24 10:00:00 15.1 10 Nordeste 35 Nordeste 0 -- -- 75
2020-10-24 09:00:00 12.9 8 Nordeste 29 Nordeste 0 -- -- 85
2020-10-24 08:00:00 12.3 7 Nordeste 21 Nordeste 0 -- -- 85
2020-10-24 07:00:00 13 9 Nordeste 28 Este 0 -- -- 90
2020-10-24 06:00:00 12.4 8 Nordeste 26 Nordeste 0 -- -- 85
2020-10-24 05:00:00 12 7 Nordeste 24 Norte 0 -- -- 85
2020-10-24 04:00:00 12.2 7 Nordeste 23 Nordeste 0 -- -- 85
2020-10-24 03:00:00 12.5 9 Nordeste 26 Este 0 -- -- 88
2020-10-24 02:00:00 12.5 10 Nordeste 25 Nordeste 0 -- -- 89
2020-10-24 01:00:00 12.5 8 Nordeste 26 Noroeste 0 -- -- 88
2020-10-24 00:00:00 12.8 10 Nordeste 33 Norte 0 -- -- 86
2020-10-23 23:00:00 13.2 13 Nordeste 31 Nordeste 0 -- -- 88
2020-10-23 22:00:00 13 8 Norte 25 Nordeste 0 -- -- 86
2020-10-23 21:00:00 13.1 9 Nordeste 24 Este 0 -- -- 86
2020-10-23 20:00:00 13.5 9 Nordeste 22 Este 0 -- -- 85
2020-10-23 19:00:00 14.4 9 Nordeste 24 Nordeste 0 -- -- 80
2020-10-23 18:00:00 14.8 9 Nordeste 29 Este 0 -- -- 77
2020-10-23 17:00:00 14.9 10 Sudeste 29 Sudeste 0 -- -- 80
2020-10-23 16:00:00 14 6 Norte 33 Sudeste 0 -- -- 87
2020-10-23 15:00:00 14.7 17 Sudeste 37 Sudeste 0 -- -- 81
2020-10-23 14:00:00 15.7 8 Sur 39 Sudeste 0 -- -- 71
2020-10-23 13:00:00 15.3 17 Sudeste 39 Sudeste 0 -- -- 75
2020-10-23 12:00:00 14.9 16 Este 40 Sur 0 -- -- 80
2020-10-23 11:00:00 13.9 10 Sudeste 34 Sudeste 0.2 -- -- 82
2020-10-23 10:00:00 12.9 5 Nordeste 18 Noroeste 0.4 -- -- 94
2020-10-23 09:00:00 11.6 4 Nordeste 22 Norte 0 -- -- 86
2020-10-23 08:00:00 11.1 10 Norte 22 Noroeste 0 -- -- 86
2020-10-23 07:00:00 10.6 8 Norte 20 Noroeste 0 -- -- 84
2020-10-23 06:00:00 11.2 7 Norte 23 Norte 0 -- -- 85
2020-10-23 05:00:00 11.1 8 Norte 20 Norte 0 -- -- 85
2020-10-23 04:00:00 11.2 7 Norte 19 Noroeste 0 -- -- 85
2020-10-23 03:00:00 11.3 8 Norte 17 Noroeste 0 -- -- 86
2020-10-23 02:00:00 11.2 7 Norte 19 Norte 0 -- -- 88
2020-10-23 01:00:00 11.7 9 Norte 23 Norte 0 -- -- 84
2020-10-23 00:00:00 12 9 Noroeste 22 Noroeste 0 -- -- 85
2020-10-22 23:00:00 12.2 8 Noroeste 22 Norte 0 -- -- 83
2020-10-22 22:00:00 12.5 10 Noroeste 22 Noroeste 0 -- -- 85
2020-10-22 21:00:00 12.8 9 Noroeste 22 Noroeste 0 -- -- 84
2020-10-22 20:00:00 13.1 8 Noroeste 28 Noroeste 0 -- -- 82
2020-10-22 19:00:00 14.5 10 Noroeste 27 Noroeste 0 -- -- 77
2020-10-22 18:00:00 16.2 6 Nordeste 21 Norte 0 -- -- 71
2020-10-22 17:00:00 16.6 8 Noroeste 19 Norte 0 -- -- 69
2020-10-22 16:00:00 15.7 6 Nordeste 23 Sudeste 0 -- -- 74
2020-10-22 15:00:00 16.5 7 Noroeste 21 Nordeste 0 -- -- 71
2020-10-22 14:00:00 16.6 7 Noroeste 23 Noroeste 0 -- -- 74
2020-10-22 13:00:00 16.3 10 Norte 29 Noroeste 0 -- -- 71
2020-10-22 12:00:00 16.5 12 Norte 26 Norte 0 -- -- 68
2020-10-22 11:00:00 14.9 6 Norte 23 Noroeste 0.2 -- -- 84
2020-10-22 10:00:00 14.5 9 Noroeste 31 Noroeste 0 -- -- 79
2020-10-22 09:00:00 12.2 10 Norte 30 Noroeste 0 -- -- 89
2020-10-22 08:00:00 11.9 12 Noroeste 36 Noroeste 0.2 -- -- 92
2020-10-22 07:00:00 11.7 7 Noroeste 35 Noroeste 0.2 -- -- 92
2020-10-22 06:00:00 12.6 12 Noroeste 31 Oeste 1.8 -- -- 92
2020-10-22 05:00:00 13.1 8 Oeste 24 Oeste 0 -- -- 84
2020-10-22 04:00:00 12.6 5 Noroeste 14 Nordeste 0 -- -- 85
2020-10-22 03:00:00 12.7 5 Este 25 Oeste 0 -- -- 82
2020-10-22 02:00:00 12.9 6 Norte 24 Noroeste 0 -- -- 81
2020-10-22 01:00:00 12.9 9 Noroeste 24 Noroeste 0 -- -- 84
2020-10-22 00:00:00 12.9 5 Este 30 Noroeste 0 -- -- 83
2020-10-21 23:00:00 13 14 Noroeste 34 Noroeste 0.6 -- -- 87
2020-10-21 22:00:00 13.6 13 Noroeste 35 Norte 0 -- -- 85
2020-10-21 21:00:00 13.6 11 Noroeste 28 Oeste 0 -- -- 87
2020-10-21 20:00:00 13.8 12 Noroeste 30 Noroeste 0 -- -- 84
2020-10-21 19:00:00 13.9 6 Noroeste 32 Noroeste 0 -- -- 80
2020-10-21 18:00:00 14.4 9 Noroeste 29 Norte 0 -- -- 85
2020-10-21 17:00:00 14.4 10 Noroeste 29 Noroeste 0.2 -- -- 86
2020-10-21 16:00:00 15.1 13 Noroeste 32 Oeste 0.2 -- -- 89
2020-10-21 15:00:00 15.5 9 Norte 32 Noroeste 0.2 -- -- 88
2020-10-21 14:00:00 15.7 11 Norte 38 Noroeste 0.2 -- -- 88
2020-10-21 13:00:00 15.4 10 Noroeste 32 Noroeste 0.6 -- -- 86
2020-10-21 12:00:00 15.9 7 Noroeste 30 Norte 0.8 -- -- 86
2020-10-21 11:00:00 16.5 5 Norte 30 Noroeste 0.2 -- -- 84
2020-10-21 10:00:00 15.3 12 Norte 30 Norte 0 -- -- 80
2020-10-21 09:00:00 14.7 9 Norte 31 Norte 0 -- -- 83
2020-10-21 08:00:00 14 11 Norte 35 Noroeste 0 -- -- 83
2020-10-21 07:00:00 14.6 13 Noroeste 34 Oeste 0 -- -- 83
2020-10-21 06:00:00 14.5 15 Noroeste 37 Norte 0 -- -- 84
2020-10-21 05:00:00 14.3 11 Noroeste 39 Noroeste 0 -- -- 89
2020-10-21 04:00:00 14.4 14 Noroeste 34 Oeste 0 -- -- 80
2020-10-21 03:00:00 14.6 17 Noroeste 32 Noroeste 0 -- -- 74
2020-10-21 02:00:00 14.7 10 Noroeste 35 Noroeste 0 -- -- 76
2020-10-21 01:00:00 14.6 8 Oeste 29 Noroeste 0 -- -- 70
2020-10-21 00:00:00 15.7 9 Oeste 30 Noroeste 0 -- -- 61
2020-10-20 23:00:00 15.1 8 Noroeste 26 Oeste 0 -- -- 82
2020-10-20 22:00:00 15.9 12 Oeste 33 Noroeste 0 -- -- 77
2020-10-20 21:00:00 16.3 10 Noroeste 28 Noroeste 0 -- -- 84
2020-10-20 20:00:00 17.2 9 Noroeste 32 Oeste 0 -- -- 86
2020-10-20 19:00:00 17.6 13 Oeste 39 Noroeste 0 -- -- 83
2020-10-20 18:00:00 17.9 16 Noroeste 40 Noroeste 0 -- -- 86
2020-10-20 17:00:00 18.9 14 Noroeste 44 Noroeste 0 -- -- 81
2020-10-20 16:00:00 18.2 16 Noroeste 49 Noroeste 0 -- -- 94
2020-10-20 15:00:00 17.7 21 Noroeste 56 Noroeste 0.2 -- -- 95
2020-10-20 14:00:00 19.5 18 Noroeste 52 Noroeste 1.6 -- -- 85
2020-10-20 13:00:00 19.3 17 Noroeste 57 Oeste 0.4 -- -- 88
2020-10-20 12:00:00 19.6 21 Oeste 58 Oeste 0 -- -- 84
2020-10-20 11:00:00 18.6 24 Oeste 63 Oeste 0 -- -- 93
2020-10-20 10:00:00 18.1 30 Oeste 65 Oeste 0 -- -- 85
2020-10-20 09:00:00 18.2 32 Oeste 64 Oeste 0 -- -- 72
2020-10-20 08:00:00 18.1 31 Oeste 59 Oeste 0 -- -- 72
2020-10-20 07:00:00 18.4 28 Oeste 59 Oeste 0 -- -- 67
2020-10-20 06:00:00 18.5 31 Oeste 62 Oeste 0 -- -- 67
2020-10-20 05:00:00 18.7 32 Oeste 57 Oeste 0 -- -- 69
2020-10-20 04:00:00 18.7 29 Oeste 49 Oeste 0 -- -- 70
2020-10-20 03:00:00 19 25 Oeste 48 Oeste 0 -- -- 65
2020-10-20 02:00:00 19.3 23 Oeste 43 Oeste 0 -- -- 63
2020-10-20 01:00:00 19.7 22 Oeste 40 Oeste 0 -- -- 58
2020-10-20 00:00:00 19.9 21 Oeste 34 Oeste 0 -- -- 58
2020-10-19 23:00:00 20.5 14 Oeste 27 Oeste 0 -- -- 55
2020-10-19 22:00:00 20.7 11 Oeste 22 Noroeste 0 -- -- 50
2020-10-19 21:00:00 20.7 8 Noroeste 24 Oeste 0 -- -- 55
2020-10-19 20:00:00 21.1 9 Noroeste 23 Oeste 0 -- -- 57
2020-10-19 19:00:00 22.2 6 Oeste 25 Oeste 0 -- -- 61
2020-10-19 18:00:00 23.7 11 Oeste 35 Oeste 0 -- -- 62
2020-10-19 17:00:00 23.9 12 Oeste 30 Oeste 0 -- -- 63
2020-10-19 16:00:00 24.7 8 Sudoeste 24 Oeste 0 -- -- 61
2020-10-19 15:00:00 25.2 9 Sudoeste 23 Este 0 -- -- 62
2020-10-19 14:00:00 24.3 9 Sudoeste 33 Oeste 0 -- -- 65
2020-10-19 13:00:00 22.6 17 Oeste 37 Oeste 0 -- -- 67
2020-10-19 12:00:00 22.4 13 Oeste 35 Oeste 0 -- -- 67
2020-10-19 11:00:00 22.9 10 Oeste 28 Oeste 0 -- -- 65
2020-10-19 10:00:00 21.2 8 Oeste 28 Oeste 0 -- -- 69
2020-10-19 09:00:00 19.3 8 Oeste 24 Oeste 0 -- -- 78
2020-10-19 08:00:00 19.4 9 Noroeste 24 Noroeste 0 -- -- 68
2020-10-19 07:00:00 18.4 7 Oeste 24 Oeste 0 -- -- 78
2020-10-19 06:00:00 18.8 11 Noroeste 25 Oeste 0 -- -- 72
2020-10-19 05:00:00 18.4 7 Oeste 26 Oeste 0 -- -- 78
2020-10-19 04:00:00 18.1 8 Oeste 22 Noroeste 0 -- -- 78
2020-10-19 03:00:00 18.6 11 Oeste 26 Oeste 0 -- -- 75
2020-10-19 02:00:00 18.6 10 Oeste 27 Oeste 0 -- -- 80
2020-10-19 01:00:00 18.3 13 Oeste 31 Oeste 0 -- -- 85
2020-10-19 00:00:00 18.6 10 Noroeste 22 Noroeste 0 -- -- 83
2020-10-18 23:00:00 18.1 10 Noroeste 23 Oeste 0 -- -- 87
2020-10-18 22:00:00 18.2 6 Oeste 17 Oeste 0 -- -- 86
2020-10-18 21:00:00 17.7 3 Oeste 10 Oeste 0 -- -- 83
2020-10-18 20:00:00 18.1 0 Calma 16 Oeste 0 -- -- 80
2020-10-18 19:00:00 19.5 9 Oeste 22 Oeste 0 -- -- 77
2020-10-18 18:00:00 20.1 9 Oeste 26 Oeste 0 -- -- 77
2020-10-18 17:00:00 19.2 16 Oeste 30 Oeste 0 -- -- 80
2020-10-18 16:00:00 17.7 17 Oeste 30 Oeste 0 -- -- 89
2020-10-18 15:00:00 18.3 13 Oeste 28 Oeste 0 -- -- 85
2020-10-18 14:00:00 17.2 8 Oeste 27 Oeste 0 -- -- 93
2020-10-18 13:00:00 17.6 11 Oeste 27 Oeste 0 -- -- 88
2020-10-18 12:00:00 18.4 8 Sudoeste 23 Sudoeste 0 -- -- 81
2020-10-18 11:00:00 -- 8 Oeste 24 Oeste 0 -- -- 91
2020-10-18 10:00:00 -- 6 Oeste 17 Noroeste 0.2 -- -- 97
2020-10-18 09:00:00 -- 6 Oeste 25 Noroeste 0 -- -- 91
2020-10-18 08:00:00 -- 10 Noroeste 18 Oeste 0 -- -- 93
2020-10-18 07:00:00 -- 8 Oeste 22 Noroeste 0 -- -- 93
2020-10-18 06:00:00 -- 6 Oeste 18 Oeste 0 -- -- 95
2020-10-18 05:00:00 -- 6 Oeste 15 Oeste 0 -- -- 97
2020-10-18 04:00:00 -- 5 Noroeste 11 Oeste 0 -- -- 97
2020-10-18 03:00:00 -- 6 Oeste 12 Oeste 0 -- -- 98
2020-10-18 02:00:00 -- 5 Oeste 12 Oeste 0 -- -- 100
2020-10-18 01:00:00 -- 3 Norte 8 Noroeste 0 -- -- 99
2020-10-18 00:00:00 -- 6 Noroeste 11 Noroeste 0 -- -- 99
2020-10-17 23:00:00 -- 4 Norte 8 Noroeste 0 -- -- 97
2020-10-17 22:00:00 -- 5 Noroeste 7 Noroeste 0 -- -- 95
2020-10-17 21:00:00 -- 0 Calma 6 Sudeste 0 -- -- 98
2020-10-17 20:00:00 -- 4 Sudeste 6 Sudeste 0.2 -- -- 99
2020-10-17 19:00:00 -- 3 Este 9 Este 0 -- -- 99
2020-10-17 18:00:00 -- 3 Este 10 Este 0 -- -- 99
2020-10-17 17:00:00 -- 6 Sudeste 13 Sudeste 0.2 -- -- 98
2020-10-17 16:00:00 -- 5 Este 14 Sudeste 0 -- -- 97
2020-10-17 15:00:00 -- 9 Sudeste 15 Sudeste 0 -- -- 91
2020-10-17 14:00:00 -- 8 Sudeste 18 Sudeste 0 -- -- 87
2020-10-17 13:00:00 -- 6 Este 14 Este 0 -- -- 90
2020-10-17 12:00:00 -- 5 Este 13 Este 0 -- -- 94
2020-10-17 11:00:00 -- 5 Este 12 Este 0 -- -- 94
2020-10-17 10:00:00 -- 5 Este 15 Este 0 -- -- 94
2020-10-17 09:00:00 -- 5 Este 9 Sudeste 0 -- -- 95
2020-10-17 08:00:00 -- 2 Este 14 Este 0 -- -- 97
2020-10-17 07:00:00 -- 6 Este 14 Este 0 -- -- 95
2020-10-17 06:00:00 -- 5 Este 11 Este 0 -- -- 96
2020-10-17 05:00:00 -- 4 Norte 17 Este 0 -- -- 91
2020-10-17 04:00:00 -- 8 Este 17 Nordeste 0 -- -- 91
2020-10-17 03:00:00 -- 4 Nordeste 9 Nordeste 0 -- -- 93
2020-10-17 02:00:00 -- 4 Nordeste 10 Norte 0 -- -- 90
2020-10-17 01:00:00 -- 3 Norte 15 Noroeste 0 -- -- 88
2020-10-17 00:00:00 -- 4 Norte 10 Nordeste 0 -- -- 89
2020-10-16 23:00:00 -- 4 Norte 16 Norte 0 -- -- 87
2020-10-16 22:00:00 -- 4 Norte 13 Norte 0 -- -- 86
2020-10-16 21:00:00 -- 6 Norte 15 Norte 0 -- -- 80
2020-10-16 20:00:00 -- 6 Norte 16 Noroeste 0 -- -- 79
2020-10-16 19:00:00 -- 6 Noroeste 21 Noroeste 0 -- -- 74
2020-10-16 18:00:00 -- 4 Norte 20 Noroeste 0 -- -- 74
2020-10-16 17:00:00 -- 7 Norte 27 Oeste 0 -- -- 71
2020-10-16 16:00:00 -- 4 Sur 15 Sudeste 0 -- -- 90
2020-10-16 15:00:00 -- 4 Este 13 Este 0 -- -- 96
2020-10-16 14:00:00 -- 5 Sudeste 12 Sudeste 0 -- -- 98
2020-10-16 13:00:00 -- 5 Este 10 Este 0 -- -- 96
2020-10-16 12:00:00 -- 3 Sudeste 14 Sudeste 0 -- -- 89
2020-10-16 11:00:00 -- 3 Sudeste 13 Sudeste 0 -- -- 91
2020-10-16 10:00:00 -- 2 Nordeste 7 Nordeste 0 -- -- 88
2020-10-16 09:00:00 -- 3 Norte 8 Norte 0 -- -- 78
2020-10-16 08:00:00 -- 4 Norte 8 Norte 0 -- -- 67
2020-10-16 07:00:00 -- 3 Norte 15 Norte 0 -- -- 82
2020-10-16 06:00:00 -- 4 Norte 11 Norte 0 -- -- 88
2020-10-16 05:00:00 -- 5 Nordeste 13 Nordeste 0 -- -- 93
2020-10-16 04:00:00 -- 4 Nordeste 13 Nordeste 0 -- -- 94
2020-10-16 03:00:00 -- 4 Nordeste 10 Nordeste 0 -- -- 87
2020-10-16 02:00:00 -- 2 Noroeste 8 Norte 0 -- -- 39
2020-10-16 01:00:00 -- 4 Norte 10 Noroeste 0 -- -- 41
2020-10-16 00:00:00 -- 6 Norte 10 Noroeste 0 -- -- 41
2020-10-15 23:00:00 -- 5 Norte 12 Norte 0 -- -- 40
2020-10-15 22:00:00 -- 5 Norte 10 Noroeste 0 -- -- 43
2020-10-15 21:00:00 -- 2 Norte 10 Nordeste 0 -- -- 63
2020-10-15 20:00:00 -- 0 Calma 10 Este 0 -- -- 73
2020-10-15 19:00:00 -- 4 Nordeste 12 Este 0 -- -- 28
2020-10-15 18:00:00 -- 6 Este 15 Nordeste 0 -- -- 27
2020-10-15 17:00:00 -- 8 Este 17 Este 0 -- -- 25
2020-10-15 16:00:00 -- 9 Este 17 Este 0 -- -- 13
2020-10-15 15:00:00 -- 8 Este 21 Sudeste 0 -- -- 10
2020-10-15 14:00:00 -- 10 Este 21 Sudeste 0 -- -- 9
2020-10-15 13:00:00 -- 9 Sudeste 16 Sudeste 0 -- -- 19
2020-10-15 12:00:00 -- 10 Sudeste 15 Sudeste 0 -- -- 14
2020-10-15 11:00:00 -- 9 Sur 13 Sur 0 -- -- 13
2020-10-15 10:00:00 -- 5 Sudeste 9 Sur 0 -- -- 21
2020-10-15 09:00:00 -- 4 Norte 9 Norte 0 -- -- 46
2020-10-15 08:00:00 -- 5 Norte 9 Norte 0 -- -- 45
2020-10-15 07:00:00 -- 5 Norte 10 Norte 0 -- -- 37
2020-10-15 06:00:00 -- 5 Norte 11 Este 0 -- -- 39
2020-10-15 05:00:00 -- 6 Norte 9 Norte 0 -- -- 46
2020-10-15 04:00:00 -- 6 Norte 10 Norte 0 -- -- 52
2020-10-15 03:00:00 -- 5 Norte 9 Norte 0 -- -- 46
2020-10-15 02:00:00 -- 5 Norte 9 Norte 0 -- -- 59
2020-10-15 01:00:00 -- 7 Norte 10 Noroeste 0 -- -- 48
2020-10-15 00:00:00 -- 5 Norte 8 Norte 0 -- -- 56
2020-10-14 23:00:00 -- 5 Norte 8 Norte 0 -- -- 55
2020-10-14 22:00:00 -- 4 Norte 7 Noroeste 0 -- -- 54
2020-10-14 21:00:00 -- 3 Norte 6 Norte 0 -- -- 53
2020-10-14 20:00:00 -- 2 Nordeste 10 Sudeste 0 -- -- 34
2020-10-14 19:00:00 -- 2 Nordeste 9 Este 0 -- -- 41
2020-10-14 18:00:00 -- 6 Este 12 Sur 0 -- -- 36
2020-10-14 17:00:00 -- 8 Sur 13 Sudeste 0 -- -- 30
2020-10-14 16:00:00 -- 9 Sudeste 18 Sudeste 0 -- -- 36
2020-10-14 15:00:00 -- 8 Este 17 Sudeste 0 -- -- 37
2020-10-14 14:00:00 -- 9 Sudeste 18 Sudeste 0 -- -- 27
2020-10-14 13:00:00 -- 6 Este 17 Sudeste 0 -- -- 33
2020-10-14 12:00:00 -- 7 Este 19 Sudeste 0 -- -- 26
2020-10-14 11:00:00 -- 7 Este 16 Este 0 -- -- 24
2020-10-14 10:00:00 -- 5 Nordeste 14 Nordeste 0 -- -- 24
2020-10-14 09:00:00 -- 7 Este 15 Este 0 -- -- 25
2020-10-14 08:00:00 -- 5 Nordeste 16 Nordeste 0 -- -- 32
2020-10-14 07:00:00 -- 6 Norte 14 Norte 0 -- -- 33
2020-10-14 06:00:00 -- 6 Norte 20 Noroeste 0 -- -- 35
2020-10-14 05:00:00 -- 8 Nordeste 20 Nordeste 0 -- -- 35
2020-10-14 04:00:00 -- 9 Nordeste 25 Este 0 -- -- 39
2020-10-14 03:00:00 -- 9 Este 26 Sudeste 0 -- -- 37
2020-10-14 02:00:00 -- 5 Este 16 Sudeste 0 -- -- 31
2020-10-14 01:00:00 -- 4 Norte 15 Norte 0 -- -- 32
2020-10-14 00:00:00 -- 5 Norte 16 Norte 0 -- -- 33
2020-10-13 23:00:00 -- 6 Nordeste 13 Este 0 -- -- 32
2020-10-13 22:00:00 -- 6 Nordeste 13 Nordeste 0 -- -- 34
2020-10-13 21:00:00 -- 5 Norte 10 Norte 0 -- -- 33
2020-10-13 20:00:00 -- 5 Nordeste 13 Nordeste 0 -- -- 27
2020-10-13 19:00:00 -- 7 Nordeste 17 Este 0 -- -- 27
2020-10-13 18:00:00 -- 6 Nordeste 17 Sudeste 0 -- -- 23
2020-10-13 17:00:00 -- 7 Este 18 Este 0 -- -- 24
2020-10-13 16:00:00 -- 8 Este 19 Este 0 -- -- 25
2020-10-13 15:00:00 -- 9 Este 23 Sudeste 0 -- -- 24
2020-10-13 14:00:00 -- 12 Este 25 Este 0 -- -- 23
2020-10-13 13:00:00 27.2 10 Este 27 Sudeste 0 -- -- 23
2020-10-13 12:00:00 26.6 12 Este 25 Este 0 -- -- 26
2020-10-13 11:00:00 23 6 Este 17 Sudeste 0 -- -- 32
2020-10-13 10:00:00 17 6 Nordeste 22 Este 1.8 -- -- 71
2020-10-13 09:00:00 -- -- -- -- -- -- -- -- --
2020-10-13 08:00:00 21.6 8 Nordeste 22 Este 0 -- -- 38
2020-10-13 07:00:00 21.8 6 Nordeste 17 Nordeste 0 -- -- 31
2020-10-13 06:00:00 22.4 6 Nordeste 16 Este 0 -- -- 31
2020-10-13 05:00:00 22.6 5 Nordeste 23 Nordeste 0 -- -- 30
2020-10-13 04:00:00 22.9 8 Este 21 Sudeste 0 -- -- 28
2020-10-13 03:00:00 -- -- -- -- -- -- -- -- --
2020-10-13 02:00:00 23.4 6 Este 24 Sudeste 0 -- -- 29
2020-10-13 01:00:00 22.8 3 Nordeste 16 Norte 0 -- -- 30
2020-10-13 00:00:00 -- -- -- -- -- -- -- -- --
2020-10-12 23:00:00 23.4 6 Nordeste 20 Este 0 -- -- 29
2020-10-12 22:00:00 23.6 8 Nordeste 21 Norte 0 -- -- 28
2020-10-12 21:00:00 24 8 Nordeste 22 Norte 0 -- -- 28
2020-10-12 20:00:00 24.4 7 Nordeste 26 Este 0 -- -- 28
2020-10-12 19:00:00 25.4 9 Este 34 Sudeste 0 -- -- 27
2020-10-12 18:00:00 26.3 10 Este 36 Este 0 -- -- 25
2020-10-12 17:00:00 -- -- -- -- -- -- -- -- --
2020-10-12 16:00:00 26.8 14 Este 37 Sudeste 0 -- -- 25
2020-10-12 15:00:00 27 14 Este 35 Este 0 -- -- 26
2020-10-12 14:00:00 27.3 15 Este 36 Sudeste 0 -- -- 24
2020-10-12 13:00:00 27.1 13 Sudeste 35 Sudeste 0 -- -- 26
2020-10-12 12:00:00 26.5 10 Este 31 Sudeste 0 -- -- 27
2020-10-12 11:00:00 25.6 10 Sudeste 30 Este 0 -- -- 30
2020-10-12 10:00:00 24.7 9 Este 24 Sudeste 0 -- -- 28
2020-10-12 09:00:00 21.3 5 Norte 17 Noroeste 0 -- -- 33
2020-10-12 08:00:00 19.6 5 Nordeste 16 Nordeste 0 -- -- 38
2020-10-12 07:00:00 19.8 6 Norte 19 Este 0 -- -- 37
2020-10-12 06:00:00 20.4 6 Nordeste 18 Este 0 -- -- 36
2020-10-12 05:00:00 19.6 4 Nordeste 17 Este 0 -- -- 39
2020-10-12 04:00:00 18.7 5 Norte 10 Norte 0 -- -- 41
2020-10-12 03:00:00 -- -- -- -- -- -- -- -- --
2020-10-12 02:00:00 18.7 6 Norte 11 Norte 0 -- -- 40
2020-10-12 01:00:00 18.9 6 Norte 13 Nordeste 0 -- -- 39
2020-10-12 00:00:00 19.5 5 Nordeste 15 Nordeste 0 -- -- 35
2020-10-11 23:00:00 19.3 5 Nordeste 13 Norte 0 -- -- 38
2020-10-11 22:00:00 19.5 7 Norte 13 Norte 0 -- -- 40
2020-10-11 21:00:00 19.8 4 Nordeste 15 Norte 0 -- -- 38
2020-10-11 20:00:00 -- -- -- -- -- -- -- -- --
2020-10-11 19:00:00 -- -- -- -- -- -- -- -- --
2020-10-11 18:00:00 24.6 6 Este 15 Este 0 -- -- 27
2020-10-11 17:00:00 24.8 5 Este 16 Sudeste 0 -- -- 24
2020-10-11 16:00:00 24.4 8 Este 16 Este 0 -- -- 35
2020-10-11 15:00:00 24 8 Este 18 Este 0 -- -- 45
2020-10-11 14:00:00 23.7 9 Este 19 Sudeste 0 -- -- 42
2020-10-11 13:00:00 23.8 9 Este 20 Sudeste 0 -- -- 43
2020-10-11 12:00:00 20.6 6 Sudeste 20 Este 0 -- -- 71
2020-10-11 11:00:00 18.1 10 Este 21 Este 0 -- -- 82
2020-10-11 10:00:00 18.8 9 Sudeste 21 Nordeste 0 -- -- 75
2020-10-11 09:00:00 16.6 9 Norte 22 Norte 0 -- -- 70
2020-10-11 08:00:00 14.3 7 Norte 22 Norte 0 -- -- 76
2020-10-11 07:00:00 14.9 11 Norte 26 Norte 0 -- -- 81
2020-10-11 06:00:00 14.5 10 Norte 25 Norte 0 -- -- 78
2020-10-11 05:00:00 14.6 9 Norte 20 Noroeste 0 -- -- 77
2020-10-11 04:00:00 14.7 9 Norte 22 Noroeste 0 -- -- 76
2020-10-11 03:00:00 14.8 9 Norte 21 Norte 0 -- -- 75
2020-10-11 02:00:00 14.7 9 Norte 29 Norte 0 -- -- 78
2020-10-11 01:00:00 15.2 12 Norte 23 Norte 0 -- -- 81
2020-10-11 00:00:00 15.1 10 Norte 22 Norte 0 -- -- 78
2020-10-10 23:00:00 15.2 12 Noroeste 31 Noroeste 0 -- -- 78
2020-10-10 22:00:00 15.6 12 Noroeste 29 Noroeste 0 -- -- 78
2020-10-10 21:00:00 15.9 12 Noroeste 23 Norte 0 -- -- 77
2020-10-10 20:00:00 16.8 11 Noroeste 23 Noroeste 0 -- -- 75
2020-10-10 19:00:00 19.1 9 Noroeste 24 Noroeste 0 -- -- 65
2020-10-10 18:00:00 21.1 7 Oeste 20 Este 0 -- -- 62
2020-10-10 17:00:00 21.5 7 Este 17 Oeste 0 -- -- 59
2020-10-10 16:00:00 20.9 10 Sudeste 21 Sudeste 0 -- -- 67
2020-10-10 15:00:00 21.4 10 Sur 18 Sudeste 0 -- -- 65
2020-10-10 14:00:00 20.2 11 Sudeste 25 Este 0 -- -- 72
2020-10-10 13:00:00 19.3 12 Este 27 Norte 0 -- -- 74
2020-10-10 12:00:00 19.8 10 Nordeste 37 Norte 0 -- -- 62
2020-10-10 11:00:00 18.8 13 Nordeste 31 Noroeste 0 -- -- 68
2020-10-10 10:00:00 17.6 13 Nordeste 30 Sudeste 0 -- -- 75
2020-10-10 09:00:00 16 8 Nordeste 33 Norte 0 -- -- 82
2020-10-10 08:00:00 14.8 10 Norte 28 Norte 0 -- -- 87
2020-10-10 07:00:00 15.1 9 Norte 39 Norte 0 -- -- 86
2020-10-10 06:00:00 15 13 Norte 30 Noroeste 0 -- -- 84
2020-10-10 05:00:00 15.1 11 Norte 34 Norte 0 -- -- 82
2020-10-10 04:00:00 15.4 16 Noroeste 35 Noroeste 0 -- -- 82
2020-10-10 03:00:00 15.3 14 Noroeste 35 Noroeste 0 -- -- 86
2020-10-10 02:00:00 15.4 4 Noroeste 21 Oeste 0 -- -- 83
2020-10-10 01:00:00 15.4 5 Noroeste 19 Oeste 0 -- -- 75
2020-10-10 00:00:00 15.8 7 Noroeste 36 Norte 0 -- -- 75
2020-10-09 23:00:00 15.9 12 Noroeste 37 Norte 0 -- -- 79
2020-10-09 22:00:00 15.3 4 Sudeste 17 Sur 0 -- -- 85
2020-10-09 21:00:00 15.3 3 Noroeste 9 Oeste 0 -- -- 80
2020-10-09 20:00:00 17 4 Este 20 Este 0 -- -- 77
2020-10-09 19:00:00 18.4 9 Este 17 Sur 0 -- -- 73
2020-10-09 18:00:00 20 8 Sur 18 Sur 0 -- -- 77
2020-10-09 17:00:00 21.1 2 Sudeste 17 Sudeste 0 -- -- 62
2020-10-09 16:00:00 21.2 8 Sudeste 27 Sur 0 -- -- 72
2020-10-09 15:00:00 20.2 8 Sudeste 16 Sur 0 -- -- 82
2020-10-09 14:00:00 20 8 Sudeste 21 Sudeste 0 -- -- 79
2020-10-09 13:00:00 21.8 10 Sudeste 18 Sudeste 0 -- -- 72
2020-10-09 12:00:00 21.5 10 Sudeste 22 Sudeste 0 -- -- 72
2020-10-09 11:00:00 21.5 5 Sur 12 Sudeste 0 -- -- 69
2020-10-09 10:00:00 21.9 6 Sudeste 13 Sur 0 -- -- 61
2020-10-09 09:00:00 16.3 4 Norte 10 Norte 0 -- -- 49
2020-10-09 08:00:00 15 7 Norte 13 Norte 0 -- -- 73
2020-10-09 07:00:00 14.5 4 Noroeste 8 Norte 0 -- -- 67
2020-10-09 06:00:00 14.1 7 Norte 9 Norte 0 -- -- 53
2020-10-09 05:00:00 14.3 6 Norte 9 Norte 0 -- -- 56
2020-10-09 04:00:00 15.2 6 Norte 10 Norte 0 -- -- 72
2020-10-09 03:00:00 15 7 Norte 9 Norte 0 -- -- 66
2020-10-09 02:00:00 15.2 5 Norte 9 Norte 0 -- -- 57
2020-10-09 01:00:00 15.8 6 Norte 9 Norte 0 -- -- 54
2020-10-09 00:00:00 15.9 5 Norte 10 Norte 0 -- -- 54
2020-10-08 23:00:00 15.9 4 Norte 9 Norte 0 -- -- 54
2020-10-08 22:00:00 15.8 6 Noroeste 9 Norte 0 -- -- 60
2020-10-08 21:00:00 17.5 5 Norte 8 Noroeste 0 -- -- 74
2020-10-08 20:00:00 20.1 3 Norte 9 Sur 0 -- -- 75
2020-10-08 19:00:00 22.2 0 Calma 12 Este 0 -- -- 67
2020-10-08 18:00:00 21.8 7 Este 15 Este 0 -- -- 65
2020-10-08 17:00:00 22.8 7 Este 15 Sudeste 0 -- -- 67
2020-10-08 16:00:00 23.4 7 Sur 19 Sur 0 -- -- 70
2020-10-08 15:00:00 23.7 9 Sudeste 21 Sudeste 0 -- -- 64
2020-10-08 14:00:00 23.9 10 Sur 22 Sur 0 -- -- 68
2020-10-08 13:00:00 23.7 10 Sudeste 18 Sudeste 0 -- -- 67
2020-10-08 12:00:00 23.6 8 Sudeste 19 Sudeste 0 -- -- 67
2020-10-08 11:00:00 22.9 8 Sudeste 15 Sur 0 -- -- 71
2020-10-08 10:00:00 21.5 5 Sudeste 10 Sudeste 0 -- -- 76
2020-10-08 09:00:00 17.2 2 Noroeste 7 Norte 0 -- -- 93
2020-10-08 08:00:00 15.7 4 Norte 8 Norte 0 -- -- 95
2020-10-08 07:00:00 15.7 4 Norte 9 Norte 0 -- -- 95
2020-10-08 06:00:00 15.6 5 Norte 8 Norte 0 -- -- 94
2020-10-08 05:00:00 15.7 7 Norte 8 Norte 0 -- -- 94
2020-10-08 04:00:00 15.8 6 Norte 8 Norte 0 -- -- 93
2020-10-08 03:00:00 15.9 6 Norte 8 Norte 0 -- -- 93
2020-10-08 02:00:00 16.2 7 Norte 9 Norte 0 -- -- 93
2020-10-08 01:00:00 16.5 6 Norte 9 Norte 0 -- -- 93
2020-10-08 00:00:00 16.8 6 Norte 10 Norte 0 -- -- 92
2020-10-07 23:00:00 17.1 6 Norte 10 Norte 0 -- -- 91
2020-10-07 22:00:00 17.6 6 Norte 8 Norte 0 -- -- 89
2020-10-07 21:00:00 18.1 5 Norte 7 Norte 0 -- -- 84
2020-10-07 20:00:00 19.6 3 Norte 9 Este 0 -- -- 78
2020-10-07 19:00:00 21.2 5 Este 10 Este 0 -- -- 73
2020-10-07 18:00:00 21.6 6 Este 13 Este 0 -- -- 71
2020-10-07 17:00:00 21.9 8 Sudeste 15 Sudeste 0 -- -- 71
2020-10-07 16:00:00 22.7 10 Sudeste 16 Este 0 -- -- 65
2020-10-07 15:00:00 22.7 9 Sudeste 17 Sudeste 0 -- -- 67
2020-10-07 14:00:00 22.3 7 Sudeste 18 Sudeste 0 -- -- 71
2020-10-07 13:00:00 22.4 9 Este 17 Este 0 -- -- 69
2020-10-07 12:00:00 22.3 9 Sudeste 14 Sudeste 0 -- -- 69
2020-10-07 11:00:00 21.5 7 Sudeste 12 Sudeste 0 -- -- 75
2020-10-07 10:00:00 20 3 Sudeste 7 Sudeste 0 -- -- 80
2020-10-07 09:00:00 17.7 2 Norte 5 Norte 0 -- -- 94
2020-10-07 08:00:00 17.1 4 Norte 7 Noroeste 0 -- -- 94
2020-10-07 07:00:00 16.9 4 Noroeste 6 Norte 0 -- -- 94
2020-10-07 06:00:00 16.7 5 Norte 7 Noroeste 0 -- -- 95
2020-10-07 05:00:00 16.6 5 Norte 6 Norte 0 -- -- 95
2020-10-07 04:00:00 17 4 Norte 6 Norte 0 -- -- 95
2020-10-07 03:00:00 17 4 Norte 8 Noroeste 0 -- -- 98
2020-10-07 02:00:00 17.5 3 Noroeste 6 Noroeste 0 -- -- 94
2020-10-07 01:00:00 17.2 5 Noroeste 11 Sur 0 -- -- 95
2020-10-07 00:00:00 16.5 5 Norte 7 Noroeste 0 -- -- 98
2020-10-06 23:00:00 16.5 4 Noroeste 8 Noroeste 0 -- -- 96
2020-10-06 22:00:00 17.5 5 Noroeste 9 Noroeste 0 -- -- 94
2020-10-06 21:00:00 18.1 5 Noroeste 11 Oeste 0 -- -- 94
2020-10-06 20:00:00 18.1 6 Oeste 10 Oeste 0 -- -- 95
2020-10-06 19:00:00 18 2 Este 9 Este 0 -- -- 94
2020-10-06 18:00:00 18.6 4 Sudeste 11 Sudeste 0 -- -- 94
2020-10-06 17:00:00 18.4 4 Sudeste 13 Sudeste 0 -- -- 99
2020-10-06 16:00:00 16.5 3 Este 13 Este 0 -- -- 100
2020-10-06 15:00:00 15.9 3 Nordeste 15 Este 0.2 -- -- 100
2020-10-06 14:00:00 16 8 Este 15 Este 0 -- -- 100
2020-10-06 13:00:00 16.4 6 Sudeste 12 Este 0.4 -- -- 100
2020-10-06 12:00:00 16.3 5 Este 13 Este 0 -- -- 100
2020-10-06 11:00:00 16.2 7 Este 13 Este 0.4 -- -- 100
2020-10-06 10:00:00 15.7 4 Nordeste 9 Este 1 -- -- 100
2020-10-06 09:00:00 15.4 3 Nordeste 14 Nordeste 2.4 -- -- 100
2020-10-06 08:00:00 15.7 6 Nordeste 16 Nordeste 1 -- -- 100
2020-10-06 07:00:00 15.1 4 Nordeste 12 Este 0.2 -- -- 100
2020-10-06 06:00:00 15.2 4 Nordeste 19 Nordeste 0 -- -- 100
2020-10-06 05:00:00 15.1 5 Nordeste 16 Nordeste 0 -- -- 100
2020-10-06 04:00:00 14.1 5 Nordeste 13 Este 0 -- -- 100
2020-10-06 03:00:00 14.2 4 Norte 15 Norte 0 -- -- 100
2020-10-06 02:00:00 15.5 6 Nordeste 20 Sudeste 0 -- -- 100
2020-10-06 01:00:00 15 7 Nordeste 16 Norte 0 -- -- 100
2020-10-06 00:00:00 14.7 4 Nordeste 19 Sudeste 0 -- -- 100
2020-10-05 23:00:00 15.7 8 Nordeste 29 Sudeste 0.6 -- -- 100
2020-10-05 22:00:00 15.9 7 Oeste 28 Sur 0.8 -- -- 100
2020-10-05 21:00:00 16.2 10 Sur 40 Sudeste 1.2 -- -- 100
2020-10-05 20:00:00 15.9 8 Este 27 Sudeste 0 -- -- 100
2020-10-05 19:00:00 15.4 6 Este 30 Sudeste 0 -- -- 100
2020-10-05 18:00:00 15.7 11 Este 33 Sudeste 0 -- -- 100
2020-10-05 17:00:00 16.4 19 Sudeste 34 Sudeste 0.4 -- -- 100
2020-10-05 16:00:00 16.7 7 Sur 21 Sudeste 1.4 -- -- 98
2020-10-05 15:00:00 18.6 12 Sudeste 20 Sudeste 0 -- -- 85
2020-10-05 14:00:00 17.6 7 Sudeste 23 Norte 0 -- -- 92
2020-10-05 13:00:00 17.9 9 Este 32 Sudeste 0 -- -- 88
2020-10-05 12:00:00 18.3 17 Este 41 Este 0 -- -- 83
2020-10-05 11:00:00 19.1 8 Este 28 Sudeste 0 -- -- 81
2020-10-05 10:00:00 17.6 7 Nordeste 22 Norte 0 -- -- 88
2020-10-05 09:00:00 15.6 5 Nordeste 17 Nordeste 0 -- -- 96
2020-10-05 08:00:00 15.3 8 Este 24 Este 0 -- -- 99
2020-10-05 07:00:00 15.1 9 Nordeste 20 Nordeste 0 -- -- 99
2020-10-05 06:00:00 14.9 8 Nordeste 19 Nordeste 0 -- -- 99
2020-10-05 05:00:00 14.5 6 Norte 22 Norte 0.2 -- -- 100
2020-10-05 04:00:00 15.6 8 Nordeste 23 Sudeste 1.4 -- -- 100
2020-10-05 03:00:00 16.1 5 Sudoeste 26 Sudeste 2.2 -- -- 100
2020-10-05 02:00:00 16.1 9 Este 29 Sudeste 1 -- -- 99
2020-10-05 01:00:00 15.6 8 Este 27 Este 0 -- -- 97
2020-10-05 00:00:00 15.5 9 Nordeste 30 Nordeste 0 -- -- 94
2020-10-04 23:00:00 15.6 14 Nordeste 41 Nordeste 0 -- -- 95
2020-10-04 22:00:00 15.9 8 Nordeste 26 Norte 0 -- -- 90
2020-10-04 21:00:00 16.2 9 Norte 39 Noroeste 0 -- -- 85
2020-10-04 20:00:00 16.9 19 Noroeste 42 Norte 0 -- -- 82
2020-10-04 19:00:00 19.5 6 Norte 27 Norte 0 -- -- 70
2020-10-04 18:00:00 20.7 5 Norte 33 Oeste 0 -- -- 71
2020-10-04 17:00:00 21.4 8 Nordeste 35 Norte 0 -- -- 67
2020-10-04 16:00:00 21.7 9 Este 23 Sudeste 0 -- -- 65
2020-10-04 15:00:00 20.1 10 Este 23 Noroeste 0 -- -- 80
2020-10-04 14:00:00 20.9 11 Este 24 Nordeste 0 -- -- 75
2020-10-04 13:00:00 20.8 7 Nordeste 24 Este 0 -- -- 78
2020-10-04 12:00:00 18.7 4 Nordeste 18 Norte 0 -- -- 94
2020-10-04 11:00:00 18 8 Nordeste 24 Norte 0.8 -- -- 98
2020-10-04 10:00:00 17 8 Nordeste 31 Este 0.4 -- -- 99
2020-10-04 09:00:00 16.5 7 Este 28 Norte 0 -- -- 98
2020-10-04 08:00:00 16.4 7 Nordeste 22 Este 0 -- -- 95
2020-10-04 07:00:00 16.1 5 Norte 23 Nordeste 0 -- -- 94
2020-10-04 06:00:00 16.2 6 Norte 20 Nordeste 0 -- -- 90
2020-10-04 05:00:00 15.9 6 Noroeste 22 Norte 0 -- -- 91
2020-10-04 04:00:00 16 9 Norte 27 Norte 0 -- -- 89
2020-10-04 03:00:00 15.7 5 Norte 23 Noroeste 0 -- -- 92
2020-10-04 02:00:00 15.5 7 Norte 21 Nordeste 0 -- -- 93
2020-10-04 01:00:00 15.6 5 Norte 20 Noroeste 0 -- -- 90
2020-10-04 00:00:00 16 5 Norte 17 Norte 0 -- -- 90
2020-10-03 23:00:00 16 7 Este 21 Noroeste 0 -- -- 94
2020-10-03 22:00:00 16.2 6 Este 23 Norte 0 -- -- 95
2020-10-03 21:00:00 16.4 8 Este 24 Este 0.2 -- -- 96
2020-10-03 20:00:00 16.8 6 Nordeste 21 Norte 0.2 -- -- 97
2020-10-03 19:00:00 16.7 14 Noroeste 37 Norte 0.2 -- -- 93
2020-10-03 18:00:00 17.4 10 Norte 35 Norte 0.2 -- -- 92
2020-10-03 17:00:00 18.4 9 Nordeste 35 Norte 0 -- -- 89
2020-10-03 16:00:00 19.9 11 Nordeste 26 Este 0 -- -- 76
2020-10-03 15:00:00 19.3 10 Este 34 Noroeste 0 -- -- 79
2020-10-03 14:00:00 18.6 9 Norte 39 Norte 0 -- -- 85
2020-10-03 13:00:00 19 9 Norte 32 Noroeste 0 -- -- 74
2020-10-03 12:00:00 18.5 9 Nordeste 31 Este 0 -- -- 77
2020-10-03 11:00:00 16.7 14 Este 38 Norte 0 -- -- 82
2020-10-03 10:00:00 17.4 12 Nordeste 34 Este 0 -- -- 77
2020-10-03 09:00:00 15.7 8 Este 45 Norte 0 -- -- 87
2020-10-03 08:00:00 14.9 13 Norte 48 Norte 0 -- -- 88
2020-10-03 07:00:00 14.6 13 Noroeste 34 Norte 0 -- -- 86
2020-10-03 06:00:00 14.9 5 Sudeste 27 Oeste 0 -- -- 86
2020-10-03 05:00:00 14.7 6 Nordeste 38 Noroeste 0 -- -- 83
2020-10-03 04:00:00 14.6 13 Noroeste 46 Oeste 0 -- -- 84
2020-10-03 03:00:00 15.1 8 Norte 31 Norte 0 -- -- 85
2020-10-03 02:00:00 15.4 12 Nordeste 44 Norte 0 -- -- 87
2020-10-03 01:00:00 15.4 13 Norte 42 Norte 0 -- -- 85
2020-10-03 00:00:00 15.6 13 Nordeste 45 Noroeste 0 -- -- 91
2020-10-02 23:00:00 15.5 13 Noroeste 56 Noroeste 0 -- -- 89
2020-10-02 22:00:00 15.5 20 Norte 45 Norte 0 -- -- 83
2020-10-02 21:00:00 15.8 12 Nordeste 34 Noroeste 0 -- -- 91
2020-10-02 20:00:00 15.7 15 Norte 38 Norte 0.2 -- -- 92
2020-10-02 19:00:00 16.8 9 Este 39 Norte 0 -- -- 86
2020-10-02 18:00:00 18.7 9 Nordeste 32 Sudeste 0 -- -- 75
2020-10-02 17:00:00 19.8 12 Nordeste 39 Norte 0 -- -- 66
2020-10-02 16:00:00 20.1 13 Nordeste 41 Este 0 -- -- 60
2020-10-02 15:00:00 20.7 8 Norte 29 Norte 0 -- -- 60
2020-10-02 14:00:00 20.5 6 Nordeste 25 Este 0 -- -- 61
2020-10-02 13:00:00 18.4 10 Nordeste 29 Norte 0 -- -- 72
2020-10-02 12:00:00 16.7 10 Nordeste 33 Norte 0 -- -- 82
2020-10-02 11:00:00 17.4 10 Norte 30 Norte 0 -- -- 74
2020-10-02 10:00:00 15.9 9 Norte 35 Norte 0 -- -- 80
2020-10-02 09:00:00 15.1 10 Este 29 Sudeste 0 -- -- 83
2020-10-02 08:00:00 14.1 10 Nordeste 29 Nordeste 0 -- -- 88
2020-10-02 07:00:00 14.5 8 Nordeste 28 Nordeste 0 -- -- 87
2020-10-02 06:00:00 14 6 Nordeste 19 Noroeste 0 -- -- 87
2020-10-02 05:00:00 14.6 10 Nordeste 34 Nordeste 0 -- -- 82
2020-10-02 04:00:00 14.9 10 Nordeste 33 Este 0 -- -- 89
2020-10-02 03:00:00 15.1 7 Nordeste 31 Nordeste 0 -- -- 88
2020-10-02 02:00:00 15.5 9 Nordeste 34 Nordeste 0.2 -- -- 93
2020-10-02 01:00:00 15.4 8 Norte 27 Norte 0 -- -- 90
2020-10-02 00:00:00 15.2 9 Nordeste 33 Norte 0 -- -- 86
2020-10-01 23:00:00 15.1 10 Norte 34 Nordeste 0 -- -- 84
2020-10-01 22:00:00 15.5 12 Nordeste 44 Norte 0 -- -- 85
2020-10-01 21:00:00 15.6 16 Norte 39 Norte 0 -- -- 84
2020-10-01 20:00:00 16.2 11 Nordeste 28 Nordeste 0 -- -- 82
2020-10-01 19:00:00 17.1 7 Norte 26 Oeste 0 -- -- 77
2020-10-01 18:00:00 18.9 8 Sudeste 24 Norte 0 -- -- 72
2020-10-01 17:00:00 20.3 8 Nordeste 40 Norte 0 -- -- 63
2020-10-01 16:00:00 20 10 Nordeste 31 Norte 0 -- -- 67
2020-10-01 15:00:00 18.9 11 Nordeste 30 Norte 0 -- -- 74
2020-10-01 14:00:00 19.5 9 Nordeste 26 Norte 0 -- -- 68
2020-10-01 13:00:00 18.4 8 Norte 29 Nordeste 0 -- -- 74
2020-10-01 12:00:00 17.3 7 Norte 29 Noroeste 0 -- -- 83
2020-10-01 11:00:00 16.9 9 Nordeste 32 Noroeste 0 -- -- 80
2020-10-01 10:00:00 16.3 11 Norte 29 Norte 0 -- -- 85
2020-10-01 09:00:00 15.8 8 Norte 26 Norte 0 -- -- 85
2020-10-01 08:00:00 15.2 5 Nordeste 28 Nordeste 0 -- -- 92
2020-10-01 07:00:00 15.3 8 Nordeste 21 Nordeste 0 -- -- 91
2020-10-01 06:00:00 15 7 Nordeste 19 Nordeste 0 -- -- 89
2020-10-01 05:00:00 14.8 7 Nordeste 31 Norte 0 -- -- 91
2020-10-01 04:00:00 14.5 7 Nordeste 32 Norte 0 -- -- 87
2020-10-01 03:00:00 15.5 10 Nordeste 23 Noroeste 0 -- -- 91
2020-10-01 02:00:00 15.7 6 Norte 22 Nordeste 0 -- -- 88
2020-10-01 01:00:00 15.1 6 Nordeste 24 Noroeste 0 -- -- 88
2020-10-01 00:00:00 15 9 Norte 27 Nordeste 0 -- -- 87
2020-09-30 23:00:00 15.2 12 Norte 28 Norte 0 -- -- 85
2020-09-30 22:00:00 15.7 8 Nordeste 27 Norte 0 -- -- 85
2020-09-30 21:00:00 15.5 6 Nordeste 19 Este 0 -- -- 83
2020-09-30 20:00:00 16.2 7 Este 24 Nordeste 0 -- -- 80
2020-09-30 19:00:00 18 7 Nordeste 22 Este 0 -- -- 77
2020-09-30 18:00:00 19.3 6 Nordeste 26 Nordeste 0 -- -- 72
2020-09-30 17:00:00 19.2 9 Este 22 Este 0 -- -- 71
2020-09-30 16:00:00 18.8 9 Nordeste 26 Nordeste 0 -- -- 70
2020-09-30 15:00:00 19 7 Norte 30 Noroeste 0 -- -- 71
2020-09-30 14:00:00 17.8 7 Nordeste 23 Norte 0 -- -- 79
2020-09-30 13:00:00 16.4 6 Este 26 Sudeste 0 -- -- 93
2020-09-30 12:00:00 16.7 7 Este 24 Sudeste 0.2 -- -- 85
2020-09-30 11:00:00 16.2 8 Sudeste 25 Este 0 -- -- 89
2020-09-30 10:00:00 15.6 5 Sudeste 23 Sudeste 0 -- -- 89
2020-09-30 09:00:00 15.4 8 Nordeste 21 Nordeste 0 -- -- 89
2020-09-30 08:00:00 15.2 6 Nordeste 22 Nordeste 0 -- -- 90
2020-09-30 07:00:00 15.2 6 Nordeste 19 Norte 0 -- -- 88
2020-09-30 06:00:00 14.9 6 Nordeste 23 Este 0 -- -- 88
2020-09-30 05:00:00 14.7 8 Nordeste 22 Noroeste 0 -- -- 86
2020-09-30 04:00:00 15.3 6 Nordeste 19 Norte 0 -- -- 87
2020-09-30 03:00:00 15.2 7 Nordeste 23 Nordeste 0 -- -- 87
2020-09-30 02:00:00 14.9 9 Nordeste 23 Este 0 -- -- 86
2020-09-30 01:00:00 14.7 6 Norte 20 Nordeste 0 -- -- 87
2020-09-30 00:00:00 15 6 Norte 21 Norte 0 -- -- 87